BLE751 LFPG-LSGG
Flight info
| Callsign | BLE751 |
|---|---|
| Flight time | 0h 47m |
| Altitude | 27000 |
| Route | PILUL DCT PIMUP DCT PIXIS DCT PIBAT/N0404F230 DCT LUSAR |
| Aircraft | A310/H-SDFGHIM1RTUWXY/LB1 |
Departure
| Time | 2026-05-05 16:22 |
|---|---|
| Airport | Charles de Gaulle International Airport (LFPG) |
Arrival
| Time | 2026-05-05 17:10 |
|---|---|
| Airport | Geneva International Airport (LSGG) |
| Time | Latitude | Longitude | Altitude | Speed | Heading |
|---|---|---|---|---|---|
| 2026-05-05 16:00 | 49.01110 | 2.54562 | 360 ft | 0 kts | 176° |
| 2026-05-05 16:12 | 49.01133 | 2.54560 | 360 ft | 4 kts | 176° |
| 2026-05-05 16:13 | 49.01206 | 2.54534 | 366 ft | 4 kts | 111° |
| 2026-05-05 16:13 | 49.01209 | 2.54510 | 364 ft | 1 kts | 85° |
| 2026-05-05 16:16 | 49.01213 | 2.54589 | 363 ft | 4 kts | 85° |
| 2026-05-05 16:16 | 49.01224 | 2.54807 | 361 ft | 11 kts | 85° |
| 2026-05-05 16:17 | 49.01184 | 2.55008 | 361 ft | 17 kts | 156° |
| 2026-05-05 16:17 | 49.01056 | 2.55064 | 362 ft | 18 kts | 165° |
| 2026-05-05 16:18 | 49.00831 | 2.55160 | 363 ft | 19 kts | 163° |
| 2026-05-05 16:18 | 49.00717 | 2.55211 | 364 ft | 15 kts | 164° |
| 2026-05-05 16:18 | 49.00466 | 2.55322 | 365 ft | 24 kts | 165° |
| 2026-05-05 16:19 | 49.00319 | 2.55384 | 362 ft | 20 kts | 164° |
| 2026-05-05 16:19 | 49.00197 | 2.55440 | 362 ft | 17 kts | 163° |
| 2026-05-05 16:19 | 48.99962 | 2.55539 | 363 ft | 17 kts | 159° |
| 2026-05-05 16:20 | 48.99819 | 2.55763 | 365 ft | 18 kts | 126° |
| 2026-05-05 16:20 | 48.99634 | 2.55821 | 364 ft | 11 kts | 174° |
| 2026-05-05 16:21 | 48.99609 | 2.56016 | 360 ft | 28 kts | 85° |
| 2026-05-05 16:22 | 48.99792 | 2.59534 | 568 ft | 168 kts | 83° |
| 2026-05-05 16:22 | 48.99862 | 2.63230 | 1888 ft | 173 kts | 83° |
| 2026-05-05 16:23 | 49.00025 | 2.66788 | 3374 ft | 170 kts | 82° |
| 2026-05-05 16:23 | 49.00134 | 2.68601 | 4003 ft | 179 kts | 83° |
| 2026-05-05 16:23 | 49.00384 | 2.72784 | 5100 ft | 215 kts | 83° |
| 2026-05-05 16:24 | 49.00507 | 2.75116 | 5934 ft | 227 kts | 84° |
| 2026-05-05 16:24 | 49.00643 | 2.77560 | 6848 ft | 237 kts | 86° |
| 2026-05-05 16:24 | 49.00204 | 2.82931 | 8318 ft | 272 kts | 99° |
| 2026-05-05 16:25 | 48.99881 | 2.85764 | 9622 ft | 273 kts | 98° |
| 2026-05-05 16:25 | 48.99286 | 2.91650 | 11579 ft | 291 kts | 99° |
| 2026-05-05 16:25 | 48.98965 | 2.94758 | 12455 ft | 303 kts | 99° |
| 2026-05-05 16:26 | 48.97092 | 3.00673 | 13470 ft | 327 kts | 142° |
| 2026-05-05 16:26 | 48.92686 | 3.02039 | 15134 ft | 338 kts | 186° |
| 2026-05-05 16:27 | 48.90368 | 3.01448 | 15866 ft | 346 kts | 191° |
| 2026-05-05 16:27 | 48.87981 | 3.00674 | 16424 ft | 346 kts | 191° |
| 2026-05-05 16:27 | 48.85648 | 2.99938 | 16933 ft | 348 kts | 191° |
| 2026-05-05 16:27 | 48.83271 | 2.99196 | 17520 ft | 349 kts | 191° |
| 2026-05-05 16:28 | 48.80888 | 2.98446 | 18271 ft | 352 kts | 191° |
| 2026-05-05 16:28 | 48.78444 | 2.97723 | 18935 ft | 355 kts | 191° |
| 2026-05-05 16:28 | 48.76008 | 2.96971 | 19574 ft | 359 kts | 190° |
| 2026-05-05 16:28 | 48.73575 | 2.96257 | 20225 ft | 363 kts | 191° |
| 2026-05-05 16:29 | 48.71058 | 2.95471 | 20913 ft | 366 kts | 191° |
| 2026-05-05 16:29 | 48.68569 | 2.94722 | 21512 ft | 373 kts | 190° |
| 2026-05-05 16:29 | 48.66004 | 2.93962 | 22278 ft | 378 kts | 190° |
| 2026-05-05 16:29 | 48.63405 | 2.93188 | 23063 ft | 383 kts | 190° |
| 2026-05-05 16:30 | 48.60774 | 2.92393 | 23785 ft | 388 kts | 190° |
| 2026-05-05 16:30 | 48.58119 | 2.91591 | 24459 ft | 391 kts | 190° |
| 2026-05-05 16:30 | 48.55434 | 2.90777 | 25125 ft | 395 kts | 189° |
| 2026-05-05 16:30 | 48.52745 | 2.89945 | 25924 ft | 395 kts | 190° |
| 2026-05-05 16:31 | 48.50025 | 2.89099 | 26391 ft | 401 kts | 190° |
| 2026-05-05 16:31 | 48.47301 | 2.88253 | 26615 ft | 398 kts | 189° |
| 2026-05-05 16:31 | 48.44611 | 2.87462 | 26754 ft | 392 kts | 189° |
| 2026-05-05 16:31 | 48.41888 | 2.86655 | 26808 ft | 407 kts | 189° |
| 2026-05-05 16:32 | 48.39073 | 2.85812 | 26811 ft | 414 kts | 189° |
| 2026-05-05 16:32 | 48.36254 | 2.84990 | 26809 ft | 415 kts | 189° |
| 2026-05-05 16:32 | 48.33380 | 2.84125 | 26824 ft | 428 kts | 189° |
| 2026-05-05 16:32 | 48.30434 | 2.83265 | 26821 ft | 434 kts | 189° |
| 2026-05-05 16:33 | 48.27431 | 2.82867 | 26793 ft | 434 kts | 174° |
| 2026-05-05 16:33 | 48.24547 | 2.84029 | 26796 ft | 430 kts | 153° |
| 2026-05-05 16:33 | 48.22154 | 2.86656 | 26809 ft | 428 kts | 133° |
| 2026-05-05 16:33 | 48.20133 | 2.89943 | 26815 ft | 430 kts | 137° |
| 2026-05-05 16:34 | 48.17638 | 2.92406 | 26814 ft | 432 kts | 152° |
| 2026-05-05 16:34 | 48.14876 | 2.94203 | 26816 ft | 434 kts | 156° |
| 2026-05-05 16:34 | 48.12092 | 2.95952 | 26793 ft | 434 kts | 155° |
| 2026-05-05 16:34 | 48.09349 | 2.97841 | 26798 ft | 434 kts | 153° |
| 2026-05-05 16:35 | 48.06647 | 2.99846 | 26810 ft | 432 kts | 152° |
| 2026-05-05 16:35 | 48.03977 | 3.01894 | 26802 ft | 430 kts | 152° |
| 2026-05-05 16:35 | 48.01322 | 3.03923 | 26819 ft | 429 kts | 153° |
| 2026-05-05 16:35 | 47.98655 | 3.05912 | 26810 ft | 428 kts | 153° |
| 2026-05-05 16:36 | 47.95992 | 3.07887 | 26815 ft | 427 kts | 153° |
| 2026-05-05 16:36 | 47.93347 | 3.09869 | 26812 ft | 426 kts | 153° |
| 2026-05-05 16:36 | 47.90706 | 3.11864 | 26811 ft | 425 kts | 153° |
| 2026-05-05 16:36 | 47.88062 | 3.13857 | 26810 ft | 426 kts | 153° |
| 2026-05-05 16:37 | 47.85408 | 3.15805 | 26818 ft | 425 kts | 154° |
| 2026-05-05 16:37 | 47.82784 | 3.17742 | 26819 ft | 425 kts | 153° |
| 2026-05-05 16:37 | 47.80142 | 3.19697 | 26809 ft | 423 kts | 154° |
| 2026-05-05 16:37 | 47.77509 | 3.21629 | 26814 ft | 423 kts | 153° |
| 2026-05-05 16:38 | 47.74872 | 3.23579 | 26826 ft | 422 kts | 154° |
| 2026-05-05 16:38 | 47.72238 | 3.25504 | 26822 ft | 422 kts | 153° |
| 2026-05-05 16:38 | 47.69610 | 3.27448 | 26822 ft | 423 kts | 154° |
| 2026-05-05 16:38 | 47.66969 | 3.29372 | 26823 ft | 423 kts | 153° |
| 2026-05-05 16:39 | 47.64331 | 3.31318 | 26822 ft | 423 kts | 154° |
| 2026-05-05 16:39 | 47.61681 | 3.33243 | 26821 ft | 425 kts | 153° |
| 2026-05-05 16:39 | 47.59031 | 3.35198 | 26816 ft | 425 kts | 154° |
| 2026-05-05 16:39 | 47.56390 | 3.37129 | 26817 ft | 423 kts | 154° |
| 2026-05-05 16:40 | 47.53748 | 3.39039 | 26828 ft | 422 kts | 155° |
| 2026-05-05 16:40 | 47.51056 | 3.40792 | 26826 ft | 422 kts | 158° |
| 2026-05-05 16:40 | 47.48340 | 3.42466 | 26833 ft | 423 kts | 158° |
| 2026-05-05 16:40 | 47.45621 | 3.44120 | 26837 ft | 423 kts | 158° |
| 2026-05-05 16:41 | 47.42901 | 3.45769 | 26824 ft | 423 kts | 158° |
| 2026-05-05 16:41 | 47.40179 | 3.47419 | 26835 ft | 423 kts | 158° |
| 2026-05-05 16:41 | 47.37459 | 3.49066 | 26833 ft | 422 kts | 158° |
| 2026-05-05 16:41 | 47.34740 | 3.50726 | 26833 ft | 423 kts | 158° |
| 2026-05-05 16:42 | 47.32030 | 3.52401 | 26840 ft | 423 kts | 158° |
| 2026-05-05 16:42 | 47.29342 | 3.54030 | 26839 ft | 423 kts | 158° |
| 2026-05-05 16:42 | 47.26589 | 3.55730 | 26841 ft | 424 kts | 158° |
| 2026-05-05 16:42 | 47.23903 | 3.57363 | 26843 ft | 424 kts | 158° |
| 2026-05-05 16:43 | 47.21143 | 3.59048 | 26840 ft | 424 kts | 158° |
| 2026-05-05 16:43 | 47.18420 | 3.60715 | 26840 ft | 424 kts | 158° |
| 2026-05-05 16:43 | 47.15729 | 3.62341 | 26841 ft | 424 kts | 158° |
| 2026-05-05 16:43 | 47.13003 | 3.64013 | 26843 ft | 424 kts | 158° |
| 2026-05-05 16:44 | 47.10277 | 3.65654 | 26849 ft | 424 kts | 158° |
| 2026-05-05 16:44 | 47.07557 | 3.67318 | 26844 ft | 424 kts | 158° |
| 2026-05-05 16:44 | 47.04826 | 3.68963 | 26846 ft | 424 kts | 158° |
| 2026-05-05 16:44 | 47.02106 | 3.70621 | 26848 ft | 424 kts | 158° |
| 2026-05-05 16:45 | 46.99379 | 3.72264 | 26847 ft | 424 kts | 158° |
| 2026-05-05 16:45 | 46.96655 | 3.73914 | 26847 ft | 424 kts | 157° |
| 2026-05-05 16:45 | 46.94103 | 3.76045 | 26844 ft | 425 kts | 141° |
| 2026-05-05 16:45 | 46.92233 | 3.79372 | 26855 ft | 427 kts | 120° |
| 2026-05-05 16:46 | 46.91245 | 3.83486 | 26861 ft | 431 kts | 105° |
| 2026-05-05 16:46 | 46.90607 | 3.87770 | 26875 ft | 432 kts | 105° |
| 2026-05-05 16:46 | 46.90117 | 3.90590 | 26864 ft | 432 kts | 108° |
| 2026-05-05 16:46 | 46.89202 | 3.94773 | 26858 ft | 432 kts | 112° |
| 2026-05-05 16:47 | 46.88149 | 3.98882 | 26854 ft | 432 kts | 114° |
| 2026-05-05 16:47 | 46.87037 | 4.03034 | 26854 ft | 432 kts | 114° |
| 2026-05-05 16:47 | 46.85947 | 4.07067 | 26853 ft | 433 kts | 114° |
| 2026-05-05 16:47 | 46.84831 | 4.11213 | 26845 ft | 433 kts | 114° |
| 2026-05-05 16:48 | 46.83753 | 4.15251 | 26851 ft | 433 kts | 114° |
| 2026-05-05 16:48 | 46.82660 | 4.19349 | 26853 ft | 433 kts | 114° |
| 2026-05-05 16:48 | 46.81567 | 4.23444 | 26855 ft | 433 kts | 114° |
| 2026-05-05 16:48 | 46.80545 | 4.27585 | 26851 ft | 435 kts | 109° |
| 2026-05-05 16:49 | 46.79843 | 4.31891 | 26853 ft | 437 kts | 104° |
| 2026-05-05 16:49 | 46.79271 | 4.36245 | 26853 ft | 438 kts | 103° |
| 2026-05-05 16:49 | 46.78711 | 4.40610 | 26856 ft | 437 kts | 104° |
| 2026-05-05 16:49 | 46.78115 | 4.44962 | 26852 ft | 437 kts | 105° |
| 2026-05-05 16:50 | 46.77485 | 4.49297 | 26844 ft | 437 kts | 105° |
| 2026-05-05 16:50 | 46.76852 | 4.53647 | 26855 ft | 438 kts | 105° |
| 2026-05-05 16:50 | 46.76222 | 4.57994 | 26856 ft | 439 kts | 105° |
| 2026-05-05 16:50 | 46.75589 | 4.62352 | 26841 ft | 440 kts | 105° |
| 2026-05-05 16:51 | 46.74953 | 4.66723 | 26637 ft | 441 kts | 105° |
| 2026-05-05 16:51 | 46.74315 | 4.71090 | 26350 ft | 440 kts | 105° |
| 2026-05-05 16:51 | 46.73655 | 4.75451 | 26018 ft | 441 kts | 105° |
| 2026-05-05 16:51 | 46.73009 | 4.79821 | 25649 ft | 442 kts | 105° |
| 2026-05-05 16:52 | 46.72354 | 4.84195 | 25277 ft | 442 kts | 106° |
| 2026-05-05 16:52 | 46.71698 | 4.88574 | 24889 ft | 443 kts | 106° |
| 2026-05-05 16:52 | 46.71044 | 4.92959 | 24523 ft | 442 kts | 106° |
| 2026-05-05 16:52 | 46.70379 | 4.97316 | 24166 ft | 440 kts | 106° |
| 2026-05-05 16:53 | 46.69728 | 5.01671 | 23812 ft | 439 kts | 106° |
| 2026-05-05 16:53 | 46.69062 | 5.05998 | 23471 ft | 437 kts | 106° |
| 2026-05-05 16:53 | 46.68413 | 5.10319 | 23076 ft | 435 kts | 106° |
| 2026-05-05 16:53 | 46.67762 | 5.14532 | 22941 ft | 432 kts | 106° |
| 2026-05-05 16:54 | 46.67114 | 5.18812 | 22739 ft | 433 kts | 106° |
| 2026-05-05 16:54 | 46.66443 | 5.23089 | 22305 ft | 433 kts | 106° |
| 2026-05-05 16:54 | 46.65777 | 5.27363 | 21724 ft | 432 kts | 106° |
| 2026-05-05 16:54 | 46.65137 | 5.31626 | 21211 ft | 430 kts | 105° |
| 2026-05-05 16:55 | 46.64507 | 5.35863 | 20640 ft | 428 kts | 105° |
| 2026-05-05 16:55 | 46.63869 | 5.40077 | 20020 ft | 425 kts | 105° |
| 2026-05-05 16:55 | 46.63227 | 5.44248 | 19385 ft | 420 kts | 105° |
| 2026-05-05 16:55 | 46.62586 | 5.48375 | 18761 ft | 416 kts | 106° |
| 2026-05-05 16:56 | 46.61924 | 5.52446 | 18158 ft | 411 kts | 106° |
| 2026-05-05 16:56 | 46.61286 | 5.56474 | 17449 ft | 407 kts | 105° |
| 2026-05-05 16:56 | 46.60660 | 5.60457 | 16779 ft | 402 kts | 105° |
| 2026-05-05 16:56 | 46.60045 | 5.64389 | 16229 ft | 395 kts | 105° |
| 2026-05-05 16:57 | 46.59445 | 5.68245 | 15840 ft | 387 kts | 105° |
| 2026-05-05 16:57 | 46.58862 | 5.72045 | 15458 ft | 384 kts | 105° |
| 2026-05-05 16:57 | 46.58280 | 5.75841 | 15079 ft | 385 kts | 105° |
| 2026-05-05 16:57 | 46.57686 | 5.79618 | 14708 ft | 380 kts | 106° |
| 2026-05-05 16:58 | 46.56868 | 5.83186 | 14308 ft | 366 kts | 123° |
| 2026-05-05 16:58 | 46.55223 | 5.85836 | 14017 ft | 343 kts | 150° |
| 2026-05-05 16:58 | 46.53170 | 5.87316 | 13951 ft | 318 kts | 160° |
| 2026-05-05 16:58 | 46.51222 | 5.88614 | 13848 ft | 300 kts | 157° |
| 2026-05-05 16:59 | 46.49405 | 5.90071 | 13442 ft | 297 kts | 153° |
| 2026-05-05 16:59 | 46.47656 | 5.91654 | 13044 ft | 296 kts | 151° |
| 2026-05-05 16:59 | 46.45940 | 5.93303 | 12649 ft | 295 kts | 150° |
| 2026-05-05 16:59 | 46.44250 | 5.94966 | 12253 ft | 293 kts | 150° |
| 2026-05-05 17:00 | 46.42569 | 5.96628 | 11856 ft | 292 kts | 149° |
| 2026-05-05 17:00 | 46.40924 | 5.98343 | 11435 ft | 293 kts | 140° |
| 2026-05-05 17:00 | 46.39763 | 6.00765 | 11119 ft | 298 kts | 116° |
| 2026-05-05 17:00 | 46.39344 | 6.03728 | 10692 ft | 305 kts | 97° |
| 2026-05-05 17:01 | 46.39484 | 6.06814 | 10313 ft | 310 kts | 82° |
| 2026-05-05 17:01 | 46.40155 | 6.09786 | 9928 ft | 314 kts | 63° |
| 2026-05-05 17:01 | 46.41373 | 6.12394 | 9633 ft | 312 kts | 54° |
| 2026-05-05 17:01 | 46.42699 | 6.14885 | 9317 ft | 313 kts | 53° |
| 2026-05-05 17:02 | 46.44042 | 6.17375 | 9001 ft | 314 kts | 53° |
| 2026-05-05 17:02 | 46.45388 | 6.19877 | 8691 ft | 314 kts | 53° |
| 2026-05-05 17:02 | 46.46520 | 6.22536 | 8373 ft | 307 kts | 72° |
| 2026-05-05 17:02 | 46.46837 | 6.25483 | 8074 ft | 289 kts | 98° |
| 2026-05-05 17:03 | 46.46332 | 6.28191 | 7684 ft | 272 kts | 120° |
| 2026-05-05 17:03 | 46.45503 | 6.30612 | 7312 ft | 264 kts | 124° |
| 2026-05-05 17:03 | 46.44675 | 6.32921 | 6950 ft | 259 kts | 124° |
| 2026-05-05 17:03 | 46.43556 | 6.34831 | 6599 ft | 241 kts | 150° |
| 2026-05-05 17:04 | 46.42169 | 6.36071 | 6225 ft | 228 kts | 163° |
| 2026-05-05 17:04 | 46.40661 | 6.36510 | 5858 ft | 219 kts | 184° |
| 2026-05-05 17:04 | 46.39223 | 6.35957 | 5459 ft | 212 kts | 213° |
| 2026-05-05 17:04 | 46.38273 | 6.34434 | 5074 ft | 202 kts | 243° |
| 2026-05-05 17:05 | 46.37777 | 6.32569 | 4686 ft | 196 kts | 248° |
| 2026-05-05 17:05 | 46.37152 | 6.30880 | 4403 ft | 186 kts | 235° |
| 2026-05-05 17:05 | 46.36405 | 6.29413 | 4201 ft | 177 kts | 227° |
| 2026-05-05 17:05 | 46.35565 | 6.28193 | 4077 ft | 166 kts | 225° |
| 2026-05-05 17:06 | 46.34773 | 6.27033 | 4005 ft | 156 kts | 226° |
| 2026-05-05 17:06 | 46.34035 | 6.25945 | 3992 ft | 149 kts | 226° |
| 2026-05-05 17:06 | 46.33301 | 6.24864 | 3966 ft | 152 kts | 225° |
| 2026-05-05 17:06 | 46.32549 | 6.23742 | 3828 ft | 162 kts | 226° |
| 2026-05-05 17:07 | 46.31772 | 6.22539 | 3555 ft | 164 kts | 226° |
| 2026-05-05 17:07 | 46.31009 | 6.21346 | 3348 ft | 154 kts | 226° |
| 2026-05-05 17:07 | 46.30294 | 6.20239 | 3021 ft | 150 kts | 226° |
| 2026-05-05 17:07 | 46.29565 | 6.19103 | 2486 ft | 155 kts | 225° |
| 2026-05-05 17:08 | 46.28834 | 6.18105 | 2260 ft | 139 kts | 220° |
| 2026-05-05 17:08 | 46.28118 | 6.17181 | 2120 ft | 136 kts | 223° |
| 2026-05-05 17:08 | 46.27453 | 6.16240 | 1995 ft | 132 kts | 224° |
| 2026-05-05 17:08 | 46.26799 | 6.15290 | 1858 ft | 135 kts | 224° |
| 2026-05-05 17:09 | 46.26131 | 6.14311 | 1695 ft | 138 kts | 226° |
| 2026-05-05 17:09 | 46.25453 | 6.13312 | 1518 ft | 142 kts | 227° |
| 2026-05-05 17:09 | 46.24746 | 6.12278 | 1376 ft | 146 kts | 226° |
| 2026-05-05 17:09 | 46.24126 | 6.11363 | 1378 ft | 107 kts | 225° |
| 2026-05-05 17:10 | 46.23790 | 6.10877 | 1383 ft | 39 kts | 223° |
| 2026-05-05 17:10 | 46.23598 | 6.10725 | 1385 ft | 19 kts | 193° |
| 2026-05-05 17:10 | 46.23495 | 6.10690 | 1401 ft | 15 kts | 195° |
| 2026-05-05 17:10 | 46.23398 | 6.10641 | 1401 ft | 17 kts | 213° |
| 2026-05-05 17:11 | 46.23303 | 6.10502 | 1407 ft | 20 kts | 226° |
| 2026-05-05 17:11 | 46.23208 | 6.10362 | 1405 ft | 19 kts | 225° |
| 2026-05-05 17:11 | 46.23121 | 6.10224 | 1407 ft | 19 kts | 229° |
| 2026-05-05 17:11 | 46.23044 | 6.10109 | 1406 ft | 14 kts | 225° |
| 2026-05-05 17:12 | 46.22973 | 6.10005 | 1408 ft | 15 kts | 225° |
| 2026-05-05 17:12 | 46.22918 | 6.09924 | 1411 ft | 9 kts | 226° |
| 2026-05-05 17:12 | 46.22866 | 6.09936 | 1406 ft | 10 kts | 133° |
| 2026-05-05 17:12 | 46.22830 | 6.09987 | 1407 ft | 4 kts | 136° |
| 2026-05-05 17:13 | 46.22816 | 6.10007 | 1401 ft | 1 kts | 135° |
| 2026-05-05 17:13 | 46.22815 | 6.10008 | 1400 ft | 0 kts | 135° |
| 2026-05-05 17:14 | 46.22815 | 6.10009 | 1400 ft | 0 kts | 135° |